createdAt,value
2024-05-09T00:00:22.088Z,0.00
2024-05-09T00:01:15.247Z,0.00
2024-05-09T00:02:15.172Z,0.00
2024-05-09T00:03:15.237Z,0.00
2024-05-09T00:04:15.160Z,0.00
2024-05-09T00:05:15.313Z,0.00
2024-05-09T00:06:15.125Z,0.00
2024-05-09T00:07:15.102Z,0.00
2024-05-09T00:08:15.149Z,0.00
2024-05-09T00:09:15.117Z,0.00
2024-05-09T00:10:22.694Z,0.00
2024-05-09T00:11:15.170Z,0.00
2024-05-09T00:12:15.155Z,0.00
2024-05-09T00:13:15.061Z,0.00
2024-05-09T00:14:15.101Z,0.00
2024-05-09T00:15:15.028Z,0.00
2024-05-09T00:16:15.011Z,0.00
2024-05-09T00:17:15.104Z,0.00
2024-05-09T00:18:15.130Z,0.00
2024-05-09T00:19:15.197Z,0.00
2024-05-09T00:20:20.495Z,0.00
2024-05-09T00:21:15.034Z,0.00
2024-05-09T00:22:14.960Z,0.00
2024-05-09T00:23:15.045Z,0.00
2024-05-09T00:24:14.922Z,0.00
2024-05-09T00:25:14.918Z,0.00
2024-05-09T00:26:14.959Z,0.00
2024-05-09T00:27:14.905Z,0.00
2024-05-09T00:28:14.904Z,0.00
2024-05-09T00:29:14.920Z,0.00
2024-05-09T00:30:24.126Z,0.00
2024-05-09T00:31:14.846Z,0.00
2024-05-09T00:32:14.915Z,0.00
2024-05-09T00:33:15.063Z,0.00
2024-05-09T00:34:14.949Z,0.00
2024-05-09T00:35:14.913Z,0.00
2024-05-09T00:36:14.823Z,0.00
2024-05-09T00:37:14.796Z,0.00
2024-05-09T00:38:14.859Z,0.00
2024-05-09T00:39:14.816Z,0.00
2024-05-09T00:40:22.490Z,0.00
2024-05-09T00:41:17.132Z,0.00
2024-05-09T00:42:14.774Z,0.00
2024-05-09T00:43:15.375Z,0.00
2024-05-09T00:44:14.795Z,0.00
2024-05-09T00:45:14.698Z,0.00
2024-05-09T00:46:14.693Z,0.00
2024-05-09T00:47:14.957Z,0.00
2024-05-09T00:48:17.548Z,0.00
2024-05-09T00:49:14.971Z,0.00
2024-05-09T00:50:19.407Z,0.00
2024-05-09T00:51:14.907Z,0.00
2024-05-09T00:52:14.618Z,0.00
2024-05-09T00:53:14.952Z,0.00
2024-05-09T00:54:14.592Z,0.00
2024-05-09T00:55:14.613Z,0.00
2024-05-09T00:56:14.637Z,0.00
2024-05-09T00:57:14.567Z,0.00
2024-05-09T00:58:14.560Z,0.00
2024-05-09T00:59:14.615Z,0.00
2024-05-09T01:00:22.674Z,0.00
2024-05-09T01:01:14.578Z,0.00
2024-05-09T01:02:14.563Z,0.00
2024-05-09T01:03:14.848Z,0.00
2024-05-09T01:04:14.533Z,0.00
2024-05-09T01:05:14.661Z,0.00
2024-05-09T01:06:14.476Z,0.00
2024-05-09T01:07:14.472Z,0.00
2024-05-09T01:08:14.514Z,0.00
2024-05-09T01:09:14.467Z,0.00
2024-05-09T01:10:21.152Z,0.00
2024-05-09T01:11:14.592Z,0.00
2024-05-09T01:12:14.562Z,0.00
2024-05-09T01:13:14.406Z,0.00
2024-05-09T01:14:14.435Z,0.00
2024-05-09T01:15:14.396Z,0.00
2024-05-09T01:16:14.360Z,0.00
2024-05-09T01:17:14.412Z,0.00
2024-05-09T01:18:14.598Z,0.00
2024-05-09T01:19:14.601Z,0.00
2024-05-09T01:20:20.174Z,0.00
2024-05-09T01:21:14.505Z,0.00
2024-05-09T01:22:14.356Z,0.00
2024-05-09T01:23:16.037Z,0.00
2024-05-09T01:24:14.300Z,0.00
2024-05-09T01:25:14.273Z,0.00
2024-05-09T01:26:14.366Z,0.00
2024-05-09T01:27:14.305Z,0.00
2024-05-09T01:28:14.297Z,0.00
2024-05-09T01:29:14.265Z,0.00
2024-05-09T01:30:17.454Z,0.00
2024-05-09T01:31:14.226Z,0.00
2024-05-09T01:32:14.306Z,0.00
2024-05-09T01:33:14.563Z,0.00
2024-05-09T01:34:14.208Z,0.00
2024-05-09T01:35:14.235Z,0.00
2024-05-09T01:36:14.255Z,0.00
2024-05-09T01:37:14.176Z,0.00
2024-05-09T01:38:14.367Z,0.00
2024-05-09T01:39:14.155Z,0.00
2024-05-09T01:40:18.579Z,0.00
2024-05-09T01:41:14.181Z,0.00
2024-05-09T01:42:14.122Z,0.00
2024-05-09T01:43:14.085Z,0.00
2024-05-09T01:44:14.982Z,0.00
2024-05-09T01:45:14.077Z,0.00
2024-05-09T01:46:14.053Z,0.00
2024-05-09T01:47:14.128Z,0.00
2024-05-09T01:48:14.143Z,0.00
2024-05-09T01:49:14.251Z,0.00
2024-05-09T01:51:14.044Z,0.00
2024-05-09T01:52:14.015Z,0.00
2024-05-09T01:53:14.904Z,0.00
2024-05-09T01:54:14.014Z,0.00
2024-05-09T01:55:13.961Z,0.00
2024-05-09T01:56:13.996Z,0.00
2024-05-09T01:57:13.948Z,0.00
2024-05-09T01:58:13.936Z,0.00
2024-05-09T01:59:13.976Z,0.00
2024-05-09T02:00:19.014Z,0.00
2024-05-09T02:01:13.975Z,0.00
2024-05-09T02:02:14.095Z,0.00
2024-05-09T02:03:16.556Z,0.00
2024-05-09T02:04:14.227Z,0.00
2024-05-09T02:05:14.078Z,0.00
2024-05-09T02:06:13.903Z,0.00
2024-05-09T02:07:13.829Z,0.00
2024-05-09T02:08:14.596Z,0.00
2024-05-09T02:09:13.806Z,0.00
2024-05-09T02:10:20.355Z,0.00
2024-05-09T02:11:13.873Z,0.00
2024-05-09T02:12:13.904Z,0.00
2024-05-09T02:13:13.784Z,0.00
2024-05-09T02:14:13.809Z,0.00
2024-05-09T02:15:13.754Z,0.00
2024-05-09T02:16:13.734Z,0.00
2024-05-09T02:17:13.854Z,0.00
2024-05-09T02:18:14.304Z,0.00
2024-05-09T02:19:13.891Z,0.00
2024-05-09T02:20:22.413Z,0.00
2024-05-09T02:21:13.746Z,0.00
2024-05-09T02:22:13.685Z,0.00
2024-05-09T02:23:13.877Z,0.00
2024-05-09T02:24:13.684Z,0.00
2024-05-09T02:25:13.659Z,0.00
2024-05-09T02:26:13.720Z,0.00
2024-05-09T02:27:13.622Z,0.00
2024-05-09T02:28:13.606Z,0.00
2024-05-09T02:29:13.647Z,0.00
2024-05-09T02:30:22.386Z,0.00
2024-05-09T02:31:13.623Z,0.00
2024-05-09T02:32:13.653Z,0.00
2024-05-09T02:33:14.561Z,0.00
2024-05-09T02:34:13.716Z,0.00
2024-05-09T02:35:13.580Z,0.00
2024-05-09T02:36:13.530Z,0.00
2024-05-09T02:37:13.503Z,0.00
2024-05-09T02:38:13.846Z,0.00
2024-05-09T02:39:13.505Z,0.00
2024-05-09T02:40:15.031Z,0.00
2024-05-09T02:41:13.529Z,0.00
2024-05-09T02:42:13.457Z,0.00
2024-05-09T02:43:13.483Z,0.00
2024-05-09T02:44:13.481Z,0.00
2024-05-09T02:45:13.432Z,0.00
2024-05-09T02:46:13.432Z,0.00
2024-05-09T02:47:13.521Z,0.00
2024-05-09T02:48:14.281Z,0.00
2024-05-09T02:49:13.577Z,0.00
2024-05-09T02:50:16.238Z,0.00
2024-05-09T02:51:13.461Z,0.00
2024-05-09T02:52:13.373Z,0.00
2024-05-09T02:53:14.089Z,0.00
2024-05-09T02:54:13.368Z,0.00
2024-05-09T02:55:13.326Z,0.00
2024-05-09T02:56:13.385Z,0.00
2024-05-09T02:57:13.636Z,0.00
2024-05-09T02:58:13.325Z,0.00
2024-05-09T02:59:13.352Z,0.00
2024-05-09T03:00:19.037Z,0.00
2024-05-09T03:01:13.326Z,0.00
2024-05-09T03:02:13.404Z,0.00
2024-05-09T03:03:15.282Z,0.00
2024-05-09T03:04:13.296Z,0.00
2024-05-09T03:05:13.256Z,0.00
2024-05-09T03:06:13.242Z,0.00
2024-05-09T03:07:13.238Z,0.00
2024-05-09T03:08:13.404Z,1.00
2024-05-09T03:09:13.190Z,1.00
2024-05-09T03:10:18.609Z,1.00
2024-05-09T03:11:13.266Z,1.00
2024-05-09T03:12:13.318Z,1.00
2024-05-09T03:13:14.635Z,2.00
2024-05-09T03:14:13.136Z,2.00
2024-05-09T03:15:13.059Z,2.00
2024-05-09T03:16:13.072Z,1.00
2024-05-09T03:17:13.132Z,0.00
2024-05-09T03:18:13.580Z,2.00
2024-05-09T03:19:13.107Z,1.00
2024-05-09T03:20:20.501Z,5.00
2024-05-09T03:21:13.034Z,1.00
2024-05-09T03:22:12.997Z,4.00
2024-05-09T03:23:13.114Z,2.00
2024-05-09T03:24:12.985Z,2.00
2024-05-09T03:25:12.978Z,3.00
2024-05-09T03:26:13.010Z,4.00
2024-05-09T03:27:12.963Z,4.00
2024-05-09T03:28:12.947Z,5.00
2024-05-09T03:29:12.967Z,6.00
2024-05-09T03:30:25.604Z,6.00
2024-05-09T03:31:12.899Z,9.00
2024-05-09T03:32:12.955Z,9.00
2024-05-09T03:33:14.135Z,10.00
2024-05-09T03:34:12.894Z,11.00
2024-05-09T03:35:13.009Z,16.00
2024-05-09T03:36:12.845Z,17.00
2024-05-09T03:37:12.822Z,20.00
2024-05-09T03:38:13.042Z,27.00
2024-05-09T03:39:12.824Z,29.00
2024-05-09T03:40:20.267Z,36.00
2024-05-09T03:41:12.829Z,42.00
2024-05-09T03:42:12.804Z,53.00
2024-05-09T03:43:12.814Z,60.00
2024-05-09T03:44:12.783Z,63.00
2024-05-09T03:45:12.760Z,71.00
2024-05-09T03:46:12.744Z,84.00
2024-05-09T03:47:12.823Z,93.00
2024-05-09T03:48:13.216Z,109.00
2024-05-09T03:49:12.817Z,123.00
2024-05-09T03:50:18.516Z,141.00
2024-05-09T03:51:12.879Z,152.00
2024-05-09T03:52:12.716Z,168.00
2024-05-09T03:53:12.873Z,184.00
2024-05-09T03:54:12.699Z,196.00
2024-05-09T03:55:12.675Z,213.00
2024-05-09T03:56:12.736Z,226.00
2024-05-09T03:57:12.654Z,247.00
2024-05-09T03:58:12.640Z,266.00
2024-05-09T03:59:12.708Z,288.00
2024-05-09T04:00:18.181Z,304.00
2024-05-09T04:01:12.678Z,326.00
2024-05-09T04:02:12.641Z,351.00
2024-05-09T04:03:13.485Z,373.00
2024-05-09T04:04:12.610Z,398.00
2024-05-09T04:05:12.624Z,421.00
2024-05-09T04:06:12.673Z,450.00
2024-05-09T04:07:12.515Z,478.00
2024-05-09T04:08:12.683Z,506.00
2024-05-09T04:09:12.554Z,537.00
2024-05-09T04:10:21.024Z,573.00
2024-05-09T04:11:12.724Z,610.00
2024-05-09T04:12:12.652Z,648.00
2024-05-09T04:13:12.502Z,687.00
2024-05-09T04:14:12.683Z,726.00
2024-05-09T04:15:13.685Z,767.00
2024-05-09T04:16:12.494Z,817.00
2024-05-09T04:17:12.487Z,861.00
2024-05-09T04:18:12.702Z,898.00
2024-05-09T04:19:12.491Z,948.00
2024-05-09T04:20:21.464Z,995.00
2024-05-09T04:21:12.409Z,1045.00
2024-05-09T04:22:12.376Z,1093.00
2024-05-09T04:23:13.081Z,1148.00
2024-05-09T04:24:12.410Z,1200.00
2024-05-09T04:25:12.319Z,1253.00
2024-05-09T04:26:12.405Z,1306.00
2024-05-09T04:27:12.317Z,1358.00
2024-05-09T04:28:12.304Z,1417.00
2024-05-09T04:29:12.329Z,1479.00
2024-05-09T04:30:18.526Z,1532.00
2024-05-09T04:31:12.282Z,1597.00
2024-05-09T04:32:12.327Z,1653.00
2024-05-09T04:33:14.004Z,1708.00
2024-05-09T04:34:12.400Z,1769.00
2024-05-09T04:35:12.292Z,1821.00
2024-05-09T04:36:12.242Z,1879.00
2024-05-09T04:37:12.199Z,1928.00
2024-05-09T04:38:12.368Z,1948.00
2024-05-09T04:39:12.191Z,1855.00
2024-05-09T04:40:24.007Z,863.00
2024-05-09T04:41:12.235Z,1701.00
2024-05-09T04:42:12.208Z,2786.00
2024-05-09T04:43:12.153Z,3622.00
2024-05-09T04:44:12.247Z,4926.00
2024-05-09T04:45:12.137Z,6330.00
2024-05-09T04:46:12.152Z,5590.00
2024-05-09T04:47:12.220Z,5178.00
2024-05-09T04:48:12.347Z,7195.00
2024-05-09T04:49:12.165Z,6643.00
2024-05-09T04:50:17.701Z,6109.00
2024-05-09T04:51:12.281Z,6437.00
2024-05-09T04:52:12.471Z,6481.00
2024-05-09T04:53:12.327Z,6816.00
2024-05-09T04:54:22.221Z,7197.00
2024-05-09T04:55:12.085Z,7311.00
2024-05-09T04:56:12.123Z,8098.00
2024-05-09T04:57:11.999Z,8660.00
2024-05-09T04:58:12.209Z,7706.00
2024-05-09T04:59:12.074Z,7482.00
2024-05-09T05:00:14.939Z,7255.00
2024-05-09T05:01:12.026Z,8458.00
2024-05-09T05:02:12.014Z,9572.00
2024-05-09T05:03:14.628Z,8632.00
2024-05-09T05:04:12.114Z,9495.00
2024-05-09T05:05:12.265Z,9983.00
2024-05-09T05:06:11.947Z,9491.00
2024-05-09T05:07:11.992Z,9784.00
2024-05-09T05:08:11.933Z,11169.00
2024-05-09T05:09:11.878Z,10259.00
2024-05-09T05:10:14.834Z,9665.00
2024-05-09T05:11:11.917Z,9648.00
2024-05-09T05:12:11.898Z,10353.00
2024-05-09T05:13:11.968Z,9983.00
2024-05-09T05:14:11.914Z,10193.00
2024-05-09T05:15:11.907Z,12011.00
2024-05-09T05:16:11.931Z,12274.00
2024-05-09T05:17:11.888Z,11355.00
2024-05-09T05:18:11.867Z,11898.00
2024-05-09T05:19:15.131Z,11302.00
2024-05-09T05:20:15.244Z,11815.00
2024-05-09T05:21:11.761Z,13035.00
2024-05-09T05:22:11.764Z,12213.00
2024-05-09T05:23:11.969Z,11851.00
2024-05-09T05:24:11.706Z,13209.00
2024-05-09T05:25:11.725Z,12939.00
2024-05-09T05:26:11.766Z,12631.00
2024-05-09T05:27:11.699Z,13014.00
2024-05-09T05:28:11.680Z,13022.00
2024-05-09T05:29:11.731Z,14001.00
2024-05-09T05:30:17.867Z,13812.00
2024-05-09T05:31:11.646Z,13725.00
2024-05-09T05:32:11.886Z,14470.00
2024-05-09T05:33:11.824Z,13825.00
2024-05-09T05:34:11.665Z,13687.00
2024-05-09T05:35:11.632Z,13827.00
2024-05-09T05:36:11.576Z,14375.00
2024-05-09T05:37:11.575Z,14747.00
2024-05-09T05:38:11.690Z,14590.00
2024-05-09T05:39:11.552Z,15167.00
2024-05-09T05:40:14.667Z,14863.00
2024-05-09T05:41:11.583Z,14730.00
2024-05-09T05:42:11.518Z,15027.00
2024-05-09T05:43:11.503Z,15053.00
2024-05-09T05:44:11.507Z,15009.00
2024-05-09T05:45:11.525Z,15158.00
2024-05-09T05:46:11.511Z,15343.00
2024-05-09T05:47:11.519Z,15572.00
2024-05-09T05:48:11.673Z,15594.00
2024-05-09T05:49:11.598Z,15560.00
2024-05-09T05:50:20.781Z,15239.00
2024-05-09T05:51:11.508Z,15272.00
2024-05-09T05:52:11.421Z,14986.00
2024-05-09T05:53:11.463Z,15430.00
2024-05-09T05:54:11.400Z,15346.00
2024-05-09T05:55:11.408Z,15428.00
2024-05-09T05:56:11.491Z,15443.00
2024-05-09T05:57:11.372Z,15592.00
2024-05-09T05:58:11.381Z,15579.00
2024-05-09T05:59:14.037Z,15784.00
2024-05-09T06:00:15.095Z,15687.00
2024-05-09T06:01:11.337Z,15828.00
2024-05-09T06:02:11.388Z,15978.00
2024-05-09T06:03:11.703Z,15836.00
2024-05-09T06:04:11.337Z,16004.00
2024-05-09T06:05:11.408Z,15912.00
2024-05-09T06:06:11.282Z,16164.00
2024-05-09T06:07:11.250Z,16209.00
2024-05-09T06:08:11.314Z,16373.00
2024-05-09T06:09:11.249Z,16460.00
2024-05-09T06:10:17.384Z,16595.00
2024-05-09T06:11:11.281Z,16735.00
2024-05-09T06:12:11.336Z,16579.00
2024-05-09T06:13:11.848Z,16725.00
2024-05-09T06:14:11.223Z,16833.00
2024-05-09T06:15:11.176Z,16885.00
2024-05-09T06:16:11.174Z,16949.00
2024-05-09T06:17:11.325Z,17107.00
2024-05-09T06:18:12.338Z,17281.00
2024-05-09T06:19:11.249Z,17155.00
2024-05-09T06:20:20.172Z,17287.00
2024-05-09T06:21:11.186Z,17152.00
2024-05-09T06:22:11.108Z,17275.00
2024-05-09T06:23:11.221Z,17262.00
2024-05-09T06:24:11.080Z,17335.00
2024-05-09T06:25:11.092Z,17563.00
2024-05-09T06:26:11.097Z,17439.00
2024-05-09T06:27:11.052Z,17513.00
2024-05-09T06:28:11.072Z,17577.00
2024-05-09T06:29:11.059Z,17604.00
2024-05-09T06:30:21.151Z,17697.00
2024-05-09T06:31:10.996Z,17829.00
2024-05-09T06:32:11.057Z,17675.00
2024-05-09T06:33:13.041Z,17753.00
2024-05-09T06:34:11.040Z,17845.00
2024-05-09T06:35:10.996Z,17999.00
2024-05-09T06:36:10.952Z,17880.00
2024-05-09T06:37:10.930Z,17929.00
2024-05-09T06:38:11.607Z,17942.00
2024-05-09T06:39:10.938Z,18055.00
2024-05-09T06:40:12.549Z,18032.00
2024-05-09T06:41:10.931Z,17935.00
2024-05-09T06:42:11.030Z,18008.00
2024-05-09T06:43:11.061Z,18103.00
2024-05-09T06:44:10.935Z,18118.00
2024-05-09T06:45:10.853Z,18278.00
2024-05-09T06:46:10.998Z,17818.00
2024-05-09T06:47:10.868Z,18304.00
2024-05-09T06:48:11.049Z,18248.00
2024-05-09T06:49:10.923Z,18344.00
2024-05-09T06:50:16.504Z,18047.00
2024-05-09T06:51:10.871Z,18217.00
2024-05-09T06:52:10.784Z,18204.00
2024-05-09T06:53:10.794Z,18164.00
2024-05-09T06:54:10.752Z,18267.00
2024-05-09T06:55:10.740Z,18350.00
2024-05-09T06:56:10.757Z,18469.00
2024-05-09T06:57:10.752Z,18416.00
2024-05-09T06:58:10.708Z,18127.00
2024-05-09T06:59:10.784Z,18241.00
2024-05-09T07:00:15.631Z,18562.00
2024-05-09T07:01:10.729Z,18045.00
2024-05-09T07:02:10.854Z,18465.00
2024-05-09T07:03:11.636Z,18563.00
2024-05-09T07:04:10.793Z,18767.00
2024-05-09T07:05:11.301Z,18680.00
2024-05-09T07:06:10.769Z,18766.00
2024-05-09T07:07:10.628Z,18592.00
2024-05-09T07:08:10.729Z,18967.00
2024-05-09T07:09:10.664Z,18826.00
2024-05-09T07:10:17.760Z,18777.00
2024-05-09T07:11:10.737Z,18949.00
2024-05-09T07:12:10.737Z,18833.00
2024-05-09T07:13:10.687Z,19032.00
2024-05-09T07:14:10.606Z,18803.00
2024-05-09T07:15:10.564Z,19090.00
2024-05-09T07:16:10.535Z,18581.00
2024-05-09T07:17:10.672Z,18814.00
2024-05-09T07:18:10.706Z,18893.00
2024-05-09T07:19:10.586Z,18947.00
2024-05-09T07:20:16.188Z,18896.00
2024-05-09T07:21:10.625Z,18809.00
2024-05-09T07:22:10.457Z,19040.00
2024-05-09T07:23:10.734Z,18937.00
2024-05-09T07:24:10.485Z,18901.00
2024-05-09T07:25:10.449Z,19064.00
2024-05-09T07:26:10.472Z,18972.00
2024-05-09T07:27:10.414Z,19081.00
2024-05-09T07:28:10.400Z,18692.00
2024-05-09T07:29:10.446Z,18845.00
2024-05-09T07:31:10.375Z,18723.00
2024-05-09T07:32:10.381Z,19005.00
2024-05-09T07:33:10.516Z,18755.00
2024-05-09T07:34:10.474Z,18359.00
2024-05-09T07:35:10.376Z,18715.00
2024-05-09T07:36:10.296Z,18980.00
2024-05-09T07:37:10.314Z,18793.00
2024-05-09T07:38:10.394Z,18765.00
2024-05-09T07:39:10.328Z,18668.00
2024-05-09T07:41:10.270Z,18403.00
2024-05-09T07:42:10.251Z,18469.00
2024-05-09T07:43:10.259Z,18011.00
2024-05-09T07:44:10.274Z,18037.00
2024-05-09T07:45:29.637Z,17646.00
2024-05-09T07:47:13.925Z,17771.00
2024-05-09T07:50:34.109Z,17773.00
2024-05-09T07:53:32.440Z,17849.00
2024-05-09T07:53:49.312Z,16740.00
2024-05-09T07:54:00.450Z,16713.00
2024-05-09T07:54:56.314Z,16218.00
2024-05-09T07:55:56.733Z,15791.00
2024-05-09T07:56:56.367Z,15609.00
2024-05-09T07:57:56.033Z,15464.00
2024-05-09T07:58:56.379Z,15575.00
2024-05-09T07:59:55.970Z,15631.00
2024-05-09T08:00:56.097Z,15546.00
2024-05-09T08:01:56.195Z,15231.00
2024-05-09T08:02:56.006Z,14865.00
2024-05-09T08:03:56.271Z,14961.00
2024-05-09T08:04:56.060Z,14676.00
2024-05-09T08:05:55.930Z,14115.00
2024-05-09T08:06:55.959Z,14723.00
2024-05-09T08:07:55.878Z,13617.00
2024-05-09T08:08:56.807Z,13937.00
2024-05-09T08:09:55.915Z,14146.00
2024-05-09T08:10:55.930Z,13977.00
2024-05-09T08:11:55.940Z,13658.00
2024-05-09T08:12:55.908Z,13751.00
2024-05-09T08:13:55.817Z,13690.00
2024-05-09T08:14:55.831Z,13399.00
2024-05-09T08:15:55.909Z,13087.00
2024-05-09T08:16:55.827Z,13231.00
2024-05-09T08:17:56.132Z,13095.00
2024-05-09T08:18:55.969Z,12860.00
2024-05-09T08:19:55.752Z,12751.00
2024-05-09T08:20:55.770Z,12646.00
2024-05-09T08:21:55.878Z,12400.00
2024-05-09T08:22:55.730Z,12318.00
2024-05-09T08:23:55.699Z,12151.00
2024-05-09T08:24:55.805Z,12048.00
2024-05-09T08:25:55.809Z,12156.00
2024-05-09T08:26:55.678Z,11973.00
2024-05-09T08:27:55.755Z,11645.00
2024-05-09T08:28:55.707Z,11642.00
2024-05-09T08:29:55.725Z,11605.00
2024-05-09T08:30:55.819Z,11416.00
2024-05-09T08:31:55.806Z,11326.00
2024-05-09T08:32:55.798Z,11151.00
2024-05-09T08:33:55.801Z,11229.00
2024-05-09T08:34:55.859Z,11019.00
2024-05-09T08:35:55.582Z,11167.00
2024-05-09T08:36:57.557Z,10930.00
2024-05-09T08:37:55.783Z,10886.00
2024-05-09T08:38:55.551Z,10928.00
2024-05-09T08:39:55.717Z,10721.00
2024-05-09T08:40:55.629Z,10628.00
2024-05-09T08:41:55.545Z,10457.00
2024-05-09T08:42:55.595Z,10298.00
2024-05-09T08:43:55.536Z,10503.00
2024-05-09T08:44:55.506Z,10363.00
2024-05-09T08:45:55.522Z,9640.00
2024-05-09T08:46:55.497Z,10224.00
2024-05-09T08:47:55.638Z,10078.00
2024-05-09T08:48:55.662Z,9953.00
2024-05-09T08:49:55.514Z,9987.00
2024-05-09T08:50:55.519Z,9985.00
2024-05-09T08:51:55.453Z,9763.00
2024-05-09T08:52:55.425Z,9777.00
2024-05-09T08:53:55.407Z,8644.00
2024-05-09T08:54:55.449Z,9488.00
2024-05-09T08:55:55.396Z,9610.00
2024-05-09T08:56:55.364Z,8877.00
2024-05-09T08:57:55.458Z,11059.00
2024-05-09T08:58:55.363Z,6191.00
2024-05-09T08:59:55.323Z,8019.00
2024-05-09T09:00:55.514Z,9305.00
2024-05-09T09:01:55.544Z,9381.00
2024-05-09T09:02:55.354Z,9141.00
2024-05-09T09:03:55.486Z,9299.00
2024-05-09T09:04:55.403Z,9548.00
2024-05-09T09:05:55.274Z,3502.00
2024-05-09T09:06:58.185Z,5781.00
2024-05-09T09:07:55.273Z,8951.00
2024-05-09T09:08:55.242Z,8750.00
2024-05-09T09:09:55.328Z,8625.00
2024-05-09T09:10:55.306Z,8416.00
2024-05-09T09:11:55.316Z,8432.00
2024-05-09T09:12:55.257Z,8544.00
2024-05-09T09:13:55.178Z,8552.00
2024-05-09T09:14:55.170Z,8523.00
2024-05-09T09:15:55.194Z,8516.00
2024-05-09T09:16:55.183Z,8315.00
2024-05-09T09:17:55.348Z,8255.00
2024-05-09T09:18:55.426Z,8005.00
2024-05-09T09:19:55.228Z,8431.00
2024-05-09T09:20:55.310Z,7808.00
2024-05-09T09:21:55.161Z,8268.00
2024-05-09T09:22:55.113Z,7899.00
2024-05-09T09:23:55.064Z,7770.00
2024-05-09T09:24:55.229Z,8072.00
2024-05-09T09:25:55.046Z,7801.00
2024-05-09T09:26:55.070Z,7860.00
2024-05-09T09:27:55.214Z,7176.00
2024-05-09T09:28:55.025Z,7489.00
2024-05-09T09:29:55.020Z,7867.00
2024-05-09T09:30:55.087Z,7838.00
2024-05-09T09:31:55.003Z,7834.00
2024-05-09T09:32:55.158Z,7785.00
2024-05-09T09:33:55.258Z,7753.00
2024-05-09T09:34:55.174Z,7919.00
2024-05-09T09:35:55.057Z,7578.00
2024-05-09T09:36:55.097Z,7464.00
2024-05-09T09:37:54.974Z,7842.00
2024-05-09T09:38:55.012Z,7539.00
2024-05-09T09:39:54.958Z,7565.00
2024-05-09T09:40:54.988Z,8594.00
2024-05-09T09:41:54.930Z,3747.00
2024-05-09T09:42:54.962Z,5987.00
2024-05-09T09:43:54.865Z,3860.00
2024-05-09T09:45:03.780Z,1184.00
2024-05-09T09:45:55.015Z,5298.00
2024-05-09T09:46:54.927Z,7321.00
2024-05-09T09:47:54.944Z,7296.00
2024-05-09T09:48:54.983Z,7207.00
2024-05-09T09:49:54.893Z,7257.00
2024-05-09T09:50:54.800Z,7419.00
2024-05-09T09:51:54.862Z,7264.00
2024-05-09T09:52:54.785Z,7611.00
2024-05-09T09:53:54.759Z,3997.00
2024-05-09T09:54:55.119Z,2281.00
2024-05-09T09:55:54.734Z,5320.00
2024-05-09T09:56:54.722Z,3595.00
2024-05-09T09:57:54.860Z,1400.00
2024-05-09T09:58:54.743Z,7244.00
2024-05-09T09:59:54.731Z,6968.00
2024-05-09T10:00:54.859Z,7392.00
2024-05-09T10:01:54.717Z,7784.00
2024-05-09T10:02:54.782Z,5145.00
2024-05-09T10:03:54.819Z,4604.00
2024-05-09T10:04:54.806Z,4254.00
2024-05-09T10:05:54.812Z,1394.00
2024-05-09T10:06:54.728Z,5556.00
2024-05-09T10:07:54.619Z,7203.00
2024-05-09T10:08:54.610Z,6884.00
2024-05-09T10:09:54.621Z,6994.00
2024-05-09T10:10:54.764Z,7319.00
2024-05-09T10:11:59.871Z,8128.00
2024-05-09T10:12:54.712Z,2760.00
2024-05-09T10:13:54.583Z,7709.00
2024-05-09T10:14:54.553Z,6878.00
2024-05-09T10:15:54.849Z,4020.00
2024-05-09T10:16:54.535Z,3713.00
2024-05-09T10:17:54.751Z,3578.00
2024-05-09T10:18:54.688Z,3497.00
2024-05-09T10:19:54.576Z,3499.00
2024-05-09T10:20:54.503Z,3771.00
2024-05-09T10:21:54.557Z,4170.00
2024-05-09T10:22:54.481Z,2781.00
2024-05-09T10:23:54.463Z,8053.00
2024-05-09T10:24:54.542Z,2415.00
2024-05-09T10:25:54.449Z,7411.00
2024-05-09T10:26:54.435Z,4096.00
2024-05-09T10:27:54.531Z,4031.00
2024-05-09T10:28:54.410Z,3958.00
2024-05-09T10:29:54.422Z,4006.00
2024-05-09T10:30:54.431Z,4194.00
2024-05-09T10:31:54.461Z,4365.00
2024-05-09T10:32:54.458Z,4035.00
2024-05-09T10:33:54.659Z,3929.00
2024-05-09T10:34:54.383Z,4110.00
2024-05-09T10:35:54.334Z,4200.00
2024-05-09T10:36:54.485Z,4178.00
2024-05-09T10:37:54.320Z,4498.00
2024-05-09T10:38:54.306Z,2963.00
2024-05-09T10:39:54.302Z,6254.00
2024-05-09T10:40:54.327Z,4195.00
2024-05-09T10:41:54.295Z,4138.00
2024-05-09T10:42:54.328Z,3921.00
2024-05-09T10:43:55.182Z,3799.00
2024-05-09T10:44:54.239Z,3688.00
2024-05-09T10:45:54.302Z,3591.00
2024-05-09T10:46:54.340Z,3481.00
2024-05-09T10:47:54.514Z,3378.00
2024-05-09T10:48:54.414Z,3444.00
2024-05-09T10:49:54.297Z,3515.00
2024-05-09T10:50:54.170Z,3368.00
2024-05-09T10:51:54.277Z,2586.00
2024-05-09T10:52:54.140Z,3860.00
2024-05-09T10:53:54.131Z,6140.00
2024-05-09T10:54:54.250Z,6031.00
2024-05-09T10:55:54.138Z,6084.00
2024-05-09T10:56:54.092Z,6614.00
2024-05-09T10:57:54.193Z,6444.00
2024-05-09T10:58:54.062Z,4030.00
2024-05-09T10:59:54.083Z,3897.00
2024-05-09T11:00:54.246Z,3823.00
2024-05-09T11:01:54.201Z,3777.00
2024-05-09T11:02:54.100Z,3798.00
2024-05-09T11:03:54.233Z,3344.00
2024-05-09T11:04:54.230Z,1929.00
2024-05-09T11:05:54.131Z,5044.00
2024-05-09T11:06:54.038Z,5119.00
2024-05-09T11:07:54.055Z,6131.00
2024-05-09T11:08:53.972Z,3913.00
2024-05-09T11:09:54.005Z,2013.00
2024-05-09T11:10:54.125Z,3672.00
2024-05-09T11:11:53.976Z,5128.00
2024-05-09T11:12:53.966Z,5001.00
2024-05-09T11:13:53.932Z,4873.00
2024-05-09T11:14:53.959Z,6434.00
2024-05-09T11:15:53.992Z,3157.00
2024-05-09T11:16:53.903Z,5356.00
2024-05-09T11:17:53.955Z,4707.00
2024-05-09T11:18:54.059Z,1874.00
2024-05-09T11:19:53.928Z,7138.00
2024-05-09T11:20:53.866Z,2484.00
2024-05-09T11:21:53.890Z,5411.00
2024-05-09T11:22:53.834Z,5325.00
2024-05-09T11:23:53.831Z,5297.00
2024-05-09T11:24:53.882Z,5363.00
2024-05-09T11:25:53.811Z,5453.00
2024-05-09T11:26:53.788Z,5316.00
2024-05-09T11:27:53.853Z,5423.00
2024-05-09T11:28:53.761Z,5385.00
2024-05-09T11:29:53.754Z,5428.00
2024-05-09T11:30:53.774Z,5306.00
2024-05-09T11:31:53.803Z,5463.00
2024-05-09T11:32:53.814Z,5577.00
2024-05-09T11:33:53.870Z,5512.00
2024-05-09T11:34:53.703Z,5316.00
2024-05-09T11:35:53.685Z,6009.00
2024-05-09T11:36:53.748Z,6120.00
2024-05-09T11:37:53.712Z,3980.00
2024-05-09T11:38:53.635Z,3931.00
2024-05-09T11:39:53.742Z,2174.00
2024-05-09T11:40:53.699Z,6208.00
2024-05-09T11:41:53.653Z,4060.00
2024-05-09T11:42:53.760Z,4110.00
2024-05-09T11:43:53.589Z,4090.00
2024-05-09T11:44:53.690Z,4061.00
2024-05-09T11:45:53.710Z,4077.00
2024-05-09T11:46:53.595Z,4014.00
2024-05-09T11:47:53.693Z,4114.00
2024-05-09T11:48:53.833Z,3718.00
2024-05-09T11:49:53.622Z,3112.00
2024-05-09T11:50:53.602Z,5213.00
2024-05-09T11:51:53.610Z,5160.00
2024-05-09T11:52:53.508Z,5252.00
2024-05-09T11:53:53.541Z,5242.00
2024-05-09T11:54:53.556Z,5344.00
2024-05-09T11:55:53.507Z,5360.00
2024-05-09T11:56:53.496Z,5386.00
2024-05-09T11:57:53.524Z,5458.00
2024-05-09T11:58:53.431Z,5461.00
2024-05-09T11:59:53.434Z,5357.00
2024-05-09T12:00:53.567Z,5990.00
2024-05-09T12:01:53.611Z,5536.00
2024-05-09T12:02:53.452Z,2946.00
2024-05-09T12:03:53.632Z,4881.00
2024-05-09T12:04:53.556Z,5542.00
2024-05-09T12:05:53.429Z,4696.00
2024-05-09T12:06:53.454Z,5316.00
2024-05-09T12:07:53.375Z,5413.00
2024-05-09T12:08:53.370Z,7579.00
2024-05-09T12:09:53.357Z,4781.00
2024-05-09T12:10:53.852Z,4399.00
2024-05-09T12:11:53.450Z,4196.00
2024-05-09T12:12:53.357Z,4162.00
2024-05-09T12:13:53.286Z,4378.00
2024-05-09T12:14:53.268Z,4669.00
2024-05-09T12:15:53.348Z,4858.00
2024-05-09T12:16:53.291Z,4216.00
2024-05-09T12:17:53.383Z,4023.00
2024-05-09T12:18:53.366Z,6276.00
2024-05-09T12:19:53.231Z,6228.00
2024-05-09T12:20:53.250Z,6041.00
2024-05-09T12:21:53.272Z,6688.00
2024-05-09T12:22:53.174Z,7432.00
2024-05-09T12:23:53.184Z,4935.00
2024-05-09T12:24:53.232Z,4912.00
2024-05-09T12:25:53.178Z,4930.00
2024-05-09T12:26:53.162Z,4962.00